CXA8681 ZSAM-VMMC
Flight info
| Callsign | CXA8681 |
|---|---|
| Flight time | 1h 6m |
| Altitude | 30100 |
| Route | NUSPA7Y NUSPA W597 IKATA A470 BEBEM R200 GUBLO W509 NLG |
| Aircraft | B738/M-SDE2E3FGHIRWXY/LB1 |
Departure
| Time | 2026-04-28 10:21 |
|---|---|
| Airport | Xiamen Gaoqi International Airport (ZSAM) |
Arrival
| Time | 2026-04-28 11:27 |
|---|---|
| Airport | Macau International Airport (VMMC) |
| Time | Latitude | Longitude | Altitude | Speed | Heading |
|---|---|---|---|---|---|
| 2026-04-28 10:01 | 24.53598 | 118.12307 | 52 ft | 0 kts | 142° |
| 2026-04-28 10:08 | 24.53614 | 118.12293 | 56 ft | 3 kts | 142° |
| 2026-04-28 10:08 | 24.53633 | 118.12279 | 57 ft | 4 kts | 158° |
| 2026-04-28 10:09 | 24.53658 | 118.12274 | 58 ft | 4 kts | 193° |
| 2026-04-28 10:09 | 24.53681 | 118.12286 | 55 ft | 4 kts | 224° |
| 2026-04-28 10:09 | 24.53698 | 118.12308 | 53 ft | 3 kts | 232° |
| 2026-04-28 10:09 | 24.53701 | 118.12311 | 59 ft | 1 kts | 232° |
| 2026-04-28 10:11 | 24.53698 | 118.12307 | 59 ft | 2 kts | 235° |
| 2026-04-28 10:12 | 24.53693 | 118.12289 | 59 ft | 3 kts | 261° |
| 2026-04-28 10:12 | 24.53696 | 118.12267 | 55 ft | 4 kts | 288° |
| 2026-04-28 10:12 | 24.53718 | 118.12240 | 56 ft | 5 kts | 321° |
| 2026-04-28 10:12 | 24.53744 | 118.12217 | 55 ft | 5 kts | 322° |
| 2026-04-28 10:13 | 24.53773 | 118.12198 | 51 ft | 5 kts | 338° |
| 2026-04-28 10:13 | 24.53803 | 118.12204 | 59 ft | 5 kts | 36° |
| 2026-04-28 10:13 | 24.53825 | 118.12232 | 51 ft | 5 kts | 52° |
| 2026-04-28 10:13 | 24.53853 | 118.12271 | 53 ft | 8 kts | 52° |
| 2026-04-28 10:14 | 24.53905 | 118.12346 | 58 ft | 17 kts | 52° |
| 2026-04-28 10:14 | 24.53986 | 118.12459 | 51 ft | 19 kts | 52° |
| 2026-04-28 10:14 | 24.54068 | 118.12575 | 53 ft | 19 kts | 52° |
| 2026-04-28 10:14 | 24.54147 | 118.12686 | 55 ft | 18 kts | 51° |
| 2026-04-28 10:15 | 24.54224 | 118.12793 | 51 ft | 18 kts | 52° |
| 2026-04-28 10:15 | 24.54298 | 118.12897 | 50 ft | 17 kts | 52° |
| 2026-04-28 10:15 | 24.54370 | 118.12997 | 52 ft | 16 kts | 51° |
| 2026-04-28 10:15 | 24.54439 | 118.13093 | 51 ft | 16 kts | 52° |
| 2026-04-28 10:16 | 24.54505 | 118.13185 | 49 ft | 15 kts | 52° |
| 2026-04-28 10:16 | 24.54571 | 118.13278 | 49 ft | 17 kts | 52° |
| 2026-04-28 10:16 | 24.54644 | 118.13380 | 49 ft | 17 kts | 52° |
| 2026-04-28 10:16 | 24.54714 | 118.13478 | 48 ft | 16 kts | 52° |
| 2026-04-28 10:17 | 24.54782 | 118.13573 | 47 ft | 15 kts | 51° |
| 2026-04-28 10:17 | 24.54847 | 118.13664 | 47 ft | 15 kts | 52° |
| 2026-04-28 10:17 | 24.54910 | 118.13751 | 44 ft | 14 kts | 52° |
| 2026-04-28 10:17 | 24.54969 | 118.13835 | 46 ft | 14 kts | 52° |
| 2026-04-28 10:18 | 24.55026 | 118.13915 | 44 ft | 13 kts | 52° |
| 2026-04-28 10:18 | 24.55083 | 118.13994 | 44 ft | 14 kts | 52° |
| 2026-04-28 10:18 | 24.55139 | 118.14072 | 44 ft | 11 kts | 52° |
| 2026-04-28 10:18 | 24.55182 | 118.14132 | 44 ft | 7 kts | 52° |
| 2026-04-28 10:19 | 24.55220 | 118.14165 | 42 ft | 7 kts | 13° |
| 2026-04-28 10:19 | 24.55263 | 118.14147 | 43 ft | 7 kts | 323° |
| 2026-04-28 10:19 | 24.55295 | 118.14120 | 43 ft | 5 kts | 322° |
| 2026-04-28 10:19 | 24.55321 | 118.14090 | 44 ft | 6 kts | 299° |
| 2026-04-28 10:20 | 24.55322 | 118.14046 | 44 ft | 6 kts | 250° |
| 2026-04-28 10:20 | 24.55297 | 118.14006 | 43 ft | 7 kts | 232° |
| 2026-04-28 10:20 | 24.55097 | 118.13726 | 44 ft | 92 kts | 232° |
| 2026-04-28 10:20 | 24.54522 | 118.12934 | 57 ft | 169 kts | 230° |
| 2026-04-28 10:21 | 24.53694 | 118.11819 | 581 ft | 204 kts | 229° |
| 2026-04-28 10:21 | 24.52761 | 118.10600 | 1547 ft | 207 kts | 228° |
| 2026-04-28 10:21 | 24.51829 | 118.09321 | 2235 ft | 227 kts | 231° |
| 2026-04-28 10:21 | 24.50858 | 118.07897 | 2768 ft | 236 kts | 232° |
| 2026-04-28 10:22 | 24.49851 | 118.06437 | 3441 ft | 242 kts | 231° |
| 2026-04-28 10:22 | 24.48820 | 118.04965 | 4294 ft | 244 kts | 231° |
| 2026-04-28 10:22 | 24.47779 | 118.03498 | 4783 ft | 241 kts | 230° |
| 2026-04-28 10:22 | 24.46754 | 118.02057 | 4997 ft | 243 kts | 230° |
| 2026-04-28 10:23 | 24.45683 | 118.00600 | 4991 ft | 245 kts | 223° |
| 2026-04-28 10:23 | 24.44246 | 117.99671 | 5012 ft | 240 kts | 197° |
| 2026-04-28 10:23 | 24.42602 | 117.99321 | 5009 ft | 242 kts | 187° |
| 2026-04-28 10:23 | 24.40925 | 117.99121 | 5007 ft | 242 kts | 186° |
| 2026-04-28 10:24 | 24.39268 | 117.98928 | 5006 ft | 243 kts | 186° |
| 2026-04-28 10:24 | 24.37595 | 117.98721 | 5000 ft | 242 kts | 187° |
| 2026-04-28 10:24 | 24.35929 | 117.98453 | 4997 ft | 240 kts | 197° |
| 2026-04-28 10:24 | 24.34488 | 117.97528 | 5021 ft | 246 kts | 221° |
| 2026-04-28 10:25 | 24.33307 | 117.96075 | 5364 ft | 264 kts | 230° |
| 2026-04-28 10:25 | 24.32181 | 117.94478 | 6244 ft | 264 kts | 231° |
| 2026-04-28 10:25 | 24.31058 | 117.92856 | 7047 ft | 271 kts | 231° |
| 2026-04-28 10:25 | 24.29908 | 117.91204 | 7928 ft | 273 kts | 231° |
| 2026-04-28 10:26 | 24.28737 | 117.89543 | 8705 ft | 277 kts | 231° |
| 2026-04-28 10:26 | 24.27543 | 117.87859 | 9469 ft | 281 kts | 231° |
| 2026-04-28 10:26 | 24.26336 | 117.86162 | 10260 ft | 284 kts | 231° |
| 2026-04-28 10:26 | 24.25114 | 117.84453 | 11086 ft | 285 kts | 231° |
| 2026-04-28 10:27 | 24.23818 | 117.82803 | 11862 ft | 287 kts | 226° |
| 2026-04-28 10:27 | 24.22390 | 117.81262 | 12650 ft | 289 kts | 224° |
| 2026-04-28 10:27 | 24.20946 | 117.79751 | 13377 ft | 292 kts | 224° |
| 2026-04-28 10:27 | 24.19461 | 117.78203 | 14097 ft | 295 kts | 224° |
| 2026-04-28 10:28 | 24.17955 | 117.76620 | 14590 ft | 308 kts | 224° |
| 2026-04-28 10:28 | 24.16361 | 117.74930 | 14728 ft | 330 kts | 225° |
| 2026-04-28 10:28 | 24.14662 | 117.73119 | 14944 ft | 348 kts | 225° |
| 2026-04-28 10:29 | 24.11141 | 117.69355 | 16103 ft | 356 kts | 225° |
| 2026-04-28 10:29 | 24.09367 | 117.67454 | 16767 ft | 358 kts | 225° |
| 2026-04-28 10:29 | 24.07576 | 117.65536 | 17338 ft | 362 kts | 225° |
| 2026-04-28 10:29 | 24.05770 | 117.63600 | 17902 ft | 365 kts | 226° |
| 2026-04-28 10:30 | 24.03968 | 117.61626 | 18486 ft | 368 kts | 225° |
| 2026-04-28 10:30 | 24.02154 | 117.59690 | 19020 ft | 371 kts | 225° |
| 2026-04-28 10:30 | 24.00291 | 117.57710 | 19525 ft | 374 kts | 224° |
| 2026-04-28 10:30 | 23.98413 | 117.55712 | 19990 ft | 379 kts | 225° |
| 2026-04-28 10:31 | 23.96519 | 117.53686 | 20449 ft | 382 kts | 225° |
| 2026-04-28 10:31 | 23.94609 | 117.51643 | 20943 ft | 385 kts | 226° |
| 2026-04-28 10:31 | 23.92686 | 117.49591 | 21405 ft | 388 kts | 226° |
| 2026-04-28 10:31 | 23.90747 | 117.47510 | 21803 ft | 392 kts | 226° |
| 2026-04-28 10:32 | 23.88791 | 117.45415 | 22201 ft | 395 kts | 226° |
| 2026-04-28 10:32 | 23.86826 | 117.43309 | 22644 ft | 397 kts | 227° |
| 2026-04-28 10:32 | 23.85063 | 117.40971 | 22987 ft | 399 kts | 237° |
| 2026-04-28 10:32 | 23.83655 | 117.38343 | 23363 ft | 401 kts | 244° |
| 2026-04-28 10:33 | 23.82624 | 117.35512 | 23764 ft | 402 kts | 253° |
| 2026-04-28 10:33 | 23.81805 | 117.32585 | 24130 ft | 405 kts | 253° |
| 2026-04-28 10:33 | 23.81006 | 117.29633 | 24460 ft | 407 kts | 253° |
| 2026-04-28 10:33 | 23.80196 | 117.26665 | 24800 ft | 410 kts | 253° |
| 2026-04-28 10:34 | 23.79363 | 117.23675 | 25150 ft | 412 kts | 253° |
| 2026-04-28 10:34 | 23.78516 | 117.20680 | 25486 ft | 413 kts | 253° |
| 2026-04-28 10:34 | 23.77661 | 117.17684 | 25829 ft | 415 kts | 252° |
| 2026-04-28 10:34 | 23.76540 | 117.14801 | 26101 ft | 419 kts | 243° |
| 2026-04-28 10:35 | 23.75017 | 117.12081 | 26406 ft | 421 kts | 236° |
| 2026-04-28 10:35 | 23.73135 | 117.09614 | 26731 ft | 424 kts | 228° |
| 2026-04-28 10:35 | 23.71085 | 117.07286 | 27113 ft | 424 kts | 227° |
| 2026-04-28 10:35 | 23.69022 | 117.04989 | 27556 ft | 423 kts | 227° |
| 2026-04-28 10:36 | 23.66973 | 117.02700 | 27985 ft | 421 kts | 227° |
| 2026-04-28 10:36 | 23.64927 | 117.00410 | 28404 ft | 420 kts | 227° |
| 2026-04-28 10:36 | 23.62895 | 116.98122 | 28801 ft | 419 kts | 227° |
| 2026-04-28 10:36 | 23.60877 | 116.95840 | 29227 ft | 418 kts | 227° |
| 2026-04-28 10:37 | 23.58864 | 116.93556 | 29659 ft | 416 kts | 227° |
| 2026-04-28 10:37 | 23.56864 | 116.91285 | 29979 ft | 417 kts | 227° |
| 2026-04-28 10:37 | 23.54883 | 116.89034 | 29966 ft | 417 kts | 227° |
| 2026-04-28 10:38 | 23.50882 | 116.84496 | 29987 ft | 413 kts | 227° |
| 2026-04-28 10:38 | 23.46897 | 116.79981 | 29998 ft | 413 kts | 227° |
| 2026-04-28 10:39 | 23.42780 | 116.75590 | 29984 ft | 416 kts | 220° |
| 2026-04-28 10:39 | 23.38171 | 116.71769 | 29984 ft | 416 kts | 218° |
| 2026-04-28 10:40 | 23.33573 | 116.68007 | 29989 ft | 416 kts | 219° |
| 2026-04-28 10:40 | 23.28964 | 116.64206 | 29990 ft | 415 kts | 219° |
| 2026-04-28 10:41 | 23.24373 | 116.60403 | 29985 ft | 414 kts | 219° |
| 2026-04-28 10:41 | 23.19799 | 116.56609 | 29988 ft | 413 kts | 219° |
| 2026-04-28 10:42 | 23.15228 | 116.52822 | 29989 ft | 412 kts | 219° |
| 2026-04-28 10:42 | 23.11437 | 116.49684 | 29993 ft | 412 kts | 219° |
| 2026-04-28 10:43 | 23.06123 | 116.45287 | 29977 ft | 413 kts | 219° |
| 2026-04-28 10:43 | 23.01566 | 116.41522 | 29976 ft | 412 kts | 219° |
| 2026-04-28 10:44 | 22.97131 | 116.37597 | 29962 ft | 410 kts | 231° |
| 2026-04-28 10:44 | 22.94835 | 116.33148 | 29974 ft | 409 kts | 251° |
| 2026-04-28 10:44 | 22.94262 | 116.30137 | 29988 ft | 409 kts | 262° |
| 2026-04-28 10:45 | 22.93967 | 116.27064 | 29981 ft | 410 kts | 263° |
| 2026-04-28 10:45 | 22.93408 | 116.20897 | 29979 ft | 411 kts | 263° |
| 2026-04-28 10:46 | 22.92800 | 116.14726 | 29979 ft | 411 kts | 262° |
| 2026-04-28 10:46 | 22.92162 | 116.08554 | 29979 ft | 412 kts | 262° |
| 2026-04-28 10:47 | 22.91519 | 116.02383 | 29980 ft | 411 kts | 262° |
| 2026-04-28 10:47 | 22.90898 | 115.96211 | 29980 ft | 411 kts | 262° |
| 2026-04-28 10:48 | 22.90286 | 115.90051 | 29978 ft | 410 kts | 262° |
| 2026-04-28 10:48 | 22.89670 | 115.83907 | 29979 ft | 409 kts | 262° |
| 2026-04-28 10:49 | 22.89055 | 115.77773 | 29975 ft | 409 kts | 262° |
| 2026-04-28 10:49 | 22.88438 | 115.71643 | 29971 ft | 409 kts | 262° |
| 2026-04-28 10:50 | 22.87822 | 115.65544 | 29971 ft | 409 kts | 262° |
| 2026-04-28 10:50 | 22.87200 | 115.59409 | 29969 ft | 409 kts | 262° |
| 2026-04-28 10:51 | 22.86577 | 115.53275 | 29972 ft | 409 kts | 262° |
| 2026-04-28 10:51 | 22.85951 | 115.47151 | 29968 ft | 409 kts | 262° |
| 2026-04-28 10:52 | 22.85323 | 115.41028 | 29972 ft | 409 kts | 262° |
| 2026-04-28 10:52 | 22.84695 | 115.34935 | 29968 ft | 409 kts | 262° |
| 2026-04-28 10:53 | 22.84061 | 115.28801 | 29960 ft | 409 kts | 262° |
| 2026-04-28 10:53 | 22.83423 | 115.22659 | 29962 ft | 409 kts | 262° |
| 2026-04-28 10:54 | 22.82786 | 115.16531 | 29962 ft | 409 kts | 262° |
| 2026-04-28 10:54 | 22.82145 | 115.10409 | 29959 ft | 409 kts | 262° |
| 2026-04-28 10:55 | 22.81512 | 115.04359 | 29962 ft | 409 kts | 262° |
| 2026-04-28 10:55 | 22.81075 | 115.00214 | 29962 ft | 409 kts | 262° |
| 2026-04-28 10:56 | 22.80428 | 114.94082 | 29964 ft | 409 kts | 262° |
| 2026-04-28 10:56 | 22.79779 | 114.87955 | 29958 ft | 409 kts | 262° |
| 2026-04-28 10:57 | 22.79129 | 114.81831 | 29964 ft | 409 kts | 262° |
| 2026-04-28 10:57 | 22.78477 | 114.75722 | 29960 ft | 409 kts | 262° |
| 2026-04-28 10:58 | 22.77832 | 114.69622 | 29959 ft | 409 kts | 263° |
| 2026-04-28 10:58 | 22.77189 | 114.63503 | 29960 ft | 408 kts | 263° |
| 2026-04-28 10:59 | 22.76544 | 114.57391 | 29953 ft | 408 kts | 263° |
| 2026-04-28 10:59 | 22.75903 | 114.51316 | 29936 ft | 398 kts | 263° |
| 2026-04-28 10:59 | 22.75603 | 114.48371 | 29711 ft | 390 kts | 263° |
| 2026-04-28 11:00 | 22.75313 | 114.45493 | 29444 ft | 382 kts | 263° |
| 2026-04-28 11:00 | 22.75024 | 114.42628 | 29031 ft | 379 kts | 263° |
| 2026-04-28 11:00 | 22.74738 | 114.39806 | 28633 ft | 376 kts | 263° |
| 2026-04-28 11:00 | 22.74453 | 114.36999 | 28225 ft | 373 kts | 263° |
| 2026-04-28 11:01 | 22.74169 | 114.34213 | 27814 ft | 370 kts | 263° |
| 2026-04-28 11:01 | 22.73888 | 114.31460 | 27410 ft | 367 kts | 263° |
| 2026-04-28 11:01 | 22.73606 | 114.28711 | 27010 ft | 365 kts | 263° |
| 2026-04-28 11:01 | 22.73325 | 114.25984 | 26609 ft | 363 kts | 263° |
| 2026-04-28 11:02 | 22.73051 | 114.23321 | 26197 ft | 360 kts | 263° |
| 2026-04-28 11:02 | 22.72773 | 114.20623 | 25797 ft | 358 kts | 263° |
| 2026-04-28 11:02 | 22.72500 | 114.17957 | 25402 ft | 355 kts | 263° |
| 2026-04-28 11:02 | 22.72226 | 114.15304 | 25000 ft | 353 kts | 263° |
| 2026-04-28 11:03 | 22.71952 | 114.12668 | 24621 ft | 351 kts | 262° |
| 2026-04-28 11:03 | 22.71681 | 114.10052 | 24241 ft | 349 kts | 263° |
| 2026-04-28 11:03 | 22.71140 | 114.07517 | 23823 ft | 346 kts | 245° |
| 2026-04-28 11:03 | 22.69820 | 114.05362 | 23476 ft | 344 kts | 227° |
| 2026-04-28 11:04 | 22.67956 | 114.03740 | 23087 ft | 345 kts | 213° |
| 2026-04-28 11:04 | 22.65752 | 114.02736 | 22688 ft | 348 kts | 196° |
| 2026-04-28 11:04 | 22.63361 | 114.02286 | 22330 ft | 347 kts | 191° |
| 2026-04-28 11:04 | 22.60996 | 114.01966 | 21945 ft | 346 kts | 190° |
| 2026-04-28 11:05 | 22.58605 | 114.01667 | 21567 ft | 345 kts | 190° |
| 2026-04-28 11:05 | 22.56225 | 114.01362 | 21195 ft | 343 kts | 190° |
| 2026-04-28 11:05 | 22.53863 | 114.01047 | 20822 ft | 341 kts | 191° |
| 2026-04-28 11:05 | 22.51556 | 114.00730 | 20468 ft | 339 kts | 191° |
| 2026-04-28 11:06 | 22.49219 | 114.00402 | 20097 ft | 337 kts | 191° |
| 2026-04-28 11:06 | 22.46911 | 114.00075 | 19739 ft | 335 kts | 191° |
| 2026-04-28 11:06 | 22.44600 | 113.99747 | 19376 ft | 333 kts | 191° |
| 2026-04-28 11:06 | 22.42311 | 113.99422 | 19016 ft | 331 kts | 191° |
| 2026-04-28 11:07 | 22.40039 | 113.99100 | 18664 ft | 329 kts | 191° |
| 2026-04-28 11:07 | 22.37766 | 113.98774 | 18306 ft | 327 kts | 193° |
| 2026-04-28 11:07 | 22.35647 | 113.98011 | 17933 ft | 318 kts | 215° |
| 2026-04-28 11:07 | 22.34003 | 113.96477 | 17612 ft | 310 kts | 232° |
| 2026-04-28 11:08 | 22.32883 | 113.94518 | 17254 ft | 306 kts | 249° |
| 2026-04-28 11:08 | 22.31973 | 113.92433 | 16615 ft | 314 kts | 230° |
| 2026-04-28 11:08 | 22.30267 | 113.90988 | 16276 ft | 314 kts | 213° |
| 2026-04-28 11:08 | 22.28382 | 113.89789 | 15894 ft | 313 kts | 214° |
| 2026-04-28 11:09 | 22.26541 | 113.88541 | 15544 ft | 311 kts | 216° |
| 2026-04-28 11:09 | 22.24754 | 113.87224 | 15183 ft | 309 kts | 218° |
| 2026-04-28 11:09 | 22.23019 | 113.85861 | 14836 ft | 308 kts | 219° |
| 2026-04-28 11:09 | 22.21338 | 113.84487 | 14518 ft | 306 kts | 219° |
| 2026-04-28 11:10 | 22.19659 | 113.83080 | 14164 ft | 305 kts | 220° |
| 2026-04-28 11:10 | 22.18001 | 113.81671 | 13827 ft | 302 kts | 220° |
| 2026-04-28 11:10 | 22.16356 | 113.80263 | 13497 ft | 300 kts | 220° |
| 2026-04-28 11:10 | 22.14731 | 113.78865 | 13161 ft | 299 kts | 220° |
| 2026-04-28 11:11 | 22.13113 | 113.77471 | 12831 ft | 297 kts | 220° |
| 2026-04-28 11:11 | 22.11506 | 113.76085 | 12498 ft | 294 kts | 220° |
| 2026-04-28 11:11 | 22.09910 | 113.74710 | 12173 ft | 293 kts | 220° |
| 2026-04-28 11:11 | 22.08321 | 113.73340 | 11838 ft | 291 kts | 220° |
| 2026-04-28 11:12 | 22.06743 | 113.71981 | 11503 ft | 290 kts | 220° |
| 2026-04-28 11:12 | 22.05171 | 113.70628 | 11167 ft | 288 kts | 219° |
| 2026-04-28 11:12 | 22.03637 | 113.69267 | 10955 ft | 282 kts | 226° |
| 2026-04-28 11:12 | 22.02582 | 113.67527 | 10661 ft | 279 kts | 247° |
| 2026-04-28 11:13 | 22.02139 | 113.65468 | 10189 ft | 285 kts | 262° |
| 2026-04-28 11:13 | 22.02207 | 113.63274 | 9712 ft | 294 kts | 285° |
| 2026-04-28 11:13 | 22.03088 | 113.61386 | 9488 ft | 291 kts | 302° |
| 2026-04-28 11:13 | 22.04596 | 113.59815 | 8800 ft | 309 kts | 321° |
| 2026-04-28 11:14 | 22.06337 | 113.58547 | 8866 ft | 295 kts | 324° |
| 2026-04-28 11:14 | 22.08032 | 113.57362 | 8884 ft | 286 kts | 324° |
| 2026-04-28 11:14 | 22.09684 | 113.56184 | 8790 ft | 286 kts | 323° |
| 2026-04-28 11:14 | 22.11339 | 113.54986 | 8524 ft | 285 kts | 323° |
| 2026-04-28 11:15 | 22.12933 | 113.53788 | 8061 ft | 284 kts | 322° |
| 2026-04-28 11:15 | 22.14541 | 113.52548 | 7549 ft | 285 kts | 321° |
| 2026-04-28 11:15 | 22.16142 | 113.51313 | 7084 ft | 282 kts | 322° |
| 2026-04-28 11:15 | 22.17740 | 113.50081 | 6660 ft | 280 kts | 321° |
| 2026-04-28 11:16 | 22.19319 | 113.48864 | 6326 ft | 275 kts | 322° |
| 2026-04-28 11:16 | 22.20895 | 113.47794 | 6225 ft | 263 kts | 336° |
| 2026-04-28 11:16 | 22.22666 | 113.47544 | 6082 ft | 253 kts | 6° |
| 2026-04-28 11:16 | 22.24321 | 113.48087 | 5776 ft | 249 kts | 28° |
| 2026-04-28 11:17 | 22.25806 | 113.49031 | 5466 ft | 246 kts | 33° |
| 2026-04-28 11:17 | 22.27237 | 113.50027 | 5253 ft | 242 kts | 34° |
| 2026-04-28 11:17 | 22.28630 | 113.50994 | 5029 ft | 234 kts | 34° |
| 2026-04-28 11:17 | 22.29984 | 113.51927 | 4836 ft | 226 kts | 34° |
| 2026-04-28 11:18 | 22.31269 | 113.52803 | 4636 ft | 217 kts | 34° |
| 2026-04-28 11:18 | 22.32522 | 113.53653 | 4512 ft | 210 kts | 33° |
| 2026-04-28 11:18 | 22.33753 | 113.54483 | 4338 ft | 205 kts | 34° |
| 2026-04-28 11:18 | 22.34934 | 113.55277 | 4178 ft | 195 kts | 34° |
| 2026-04-28 11:19 | 22.35991 | 113.56141 | 3961 ft | 185 kts | 59° |
| 2026-04-28 11:19 | 22.36352 | 113.57431 | 3867 ft | 187 kts | 90° |
| 2026-04-28 11:19 | 22.36374 | 113.58821 | 3808 ft | 183 kts | 94° |
| 2026-04-28 11:19 | 22.36367 | 113.60203 | 3783 ft | 183 kts | 97° |
| 2026-04-28 11:20 | 22.35934 | 113.61449 | 3765 ft | 177 kts | 137° |
| 2026-04-28 11:20 | 22.34887 | 113.62090 | 3681 ft | 176 kts | 164° |
| 2026-04-28 11:20 | 22.33730 | 113.62461 | 3460 ft | 170 kts | 164° |
| 2026-04-28 11:20 | 22.32623 | 113.62808 | 3283 ft | 165 kts | 165° |
| 2026-04-28 11:21 | 22.31549 | 113.63142 | 3085 ft | 157 kts | 164° |
| 2026-04-28 11:21 | 22.30551 | 113.63454 | 2937 ft | 143 kts | 164° |
| 2026-04-28 11:21 | 22.29598 | 113.63753 | 2761 ft | 140 kts | 164° |
| 2026-04-28 11:21 | 22.28665 | 113.64019 | 2605 ft | 138 kts | 169° |
| 2026-04-28 11:22 | 22.27700 | 113.64046 | 2463 ft | 140 kts | 185° |
| 2026-04-28 11:22 | 22.26749 | 113.63810 | 2274 ft | 141 kts | 198° |
| 2026-04-28 11:22 | 22.25878 | 113.63331 | 2090 ft | 141 kts | 211° |
| 2026-04-28 11:22 | 22.25137 | 113.62631 | 1902 ft | 143 kts | 224° |
| 2026-04-28 11:23 | 22.24513 | 113.61798 | 1727 ft | 141 kts | 229° |
| 2026-04-28 11:23 | 22.23931 | 113.60973 | 1581 ft | 136 kts | 229° |
| 2026-04-28 11:23 | 22.23357 | 113.60154 | 1446 ft | 137 kts | 229° |
| 2026-04-28 11:23 | 22.22776 | 113.59333 | 1312 ft | 138 kts | 229° |
| 2026-04-28 11:24 | 22.22391 | 113.58789 | 1227 ft | 137 kts | 229° |
| 2026-04-28 11:24 | 22.22218 | 113.58545 | 1193 ft | 137 kts | 228° |
| 2026-04-28 11:24 | 22.21574 | 113.57832 | 1077 ft | 134 kts | 211° |
| 2026-04-28 11:24 | 22.20721 | 113.57466 | 978 ft | 133 kts | 190° |
| 2026-04-28 11:25 | 22.19790 | 113.57450 | 795 ft | 132 kts | 165° |
| 2026-04-28 11:25 | 22.18916 | 113.57698 | 635 ft | 133 kts | 165° |
| 2026-04-28 11:25 | 22.18034 | 113.57998 | 462 ft | 133 kts | 162° |
| 2026-04-28 11:25 | 22.17157 | 113.58323 | 285 ft | 133 kts | 161° |
| 2026-04-28 11:26 | 22.16279 | 113.58647 | 106 ft | 133 kts | 161° |
| 2026-04-28 11:26 | 22.16244 | 113.58660 | 99 ft | 133 kts | 161° |
| 2026-04-28 11:26 | 22.15369 | 113.58984 | 27 ft | 125 kts | 160° |
| 2026-04-28 11:26 | 22.14760 | 113.59212 | 30 ft | 50 kts | 161° |
| 2026-04-28 11:27 | 22.14626 | 113.59244 | 27 ft | 8 kts | 204° |
| 2026-04-28 11:27 | 22.14594 | 113.59200 | 27 ft | 7 kts | 248° |
| 2026-04-28 11:27 | 22.14577 | 113.59152 | 27 ft | 8 kts | 253° |
| 2026-04-28 11:28 | 22.14589 | 113.59091 | 27 ft | 9 kts | 314° |
| 2026-04-28 11:28 | 22.14651 | 113.59063 | 27 ft | 10 kts | 341° |
| 2026-04-28 11:28 | 22.14712 | 113.59039 | 28 ft | 9 kts | 330° |
| 2026-04-28 11:28 | 22.14756 | 113.58989 | 28 ft | 9 kts | 303° |
| 2026-04-28 11:29 | 22.14790 | 113.58929 | 28 ft | 10 kts | 303° |
| 2026-04-28 11:29 | 22.14828 | 113.58870 | 28 ft | 10 kts | 305° |
| 2026-04-28 11:29 | 22.14870 | 113.58805 | 28 ft | 12 kts | 304° |
| 2026-04-28 11:29 | 22.14923 | 113.58720 | 28 ft | 14 kts | 303° |
| 2026-04-28 11:30 | 22.14976 | 113.58633 | 28 ft | 14 kts | 303° |
| 2026-04-28 11:30 | 22.15077 | 113.58471 | 28 ft | 13 kts | 304° |
| 2026-04-28 11:30 | 22.15109 | 113.58419 | 28 ft | 12 kts | 302° |
| 2026-04-28 11:31 | 22.15172 | 113.58316 | 28 ft | 12 kts | 304° |
| 2026-04-28 11:31 | 22.15217 | 113.58243 | 28 ft | 12 kts | 303° |
| 2026-04-28 11:31 | 22.15262 | 113.58171 | 28 ft | 11 kts | 303° |
| 2026-04-28 11:31 | 22.15308 | 113.58097 | 28 ft | 13 kts | 303° |
| 2026-04-28 11:32 | 22.15366 | 113.58004 | 28 ft | 18 kts | 303° |
| 2026-04-28 11:32 | 22.15416 | 113.57923 | 28 ft | 20 kts | 303° |
| 2026-04-28 11:32 | 22.15491 | 113.57801 | 28 ft | 15 kts | 303° |
| 2026-04-28 11:32 | 22.15547 | 113.57710 | 28 ft | 14 kts | 304° |
| 2026-04-28 11:33 | 22.15595 | 113.57632 | 28 ft | 8 kts | 303° |
| 2026-04-28 11:33 | 22.15633 | 113.57605 | 28 ft | 6 kts | 352° |
| 2026-04-28 11:33 | 22.15672 | 113.57617 | 28 ft | 4 kts | 33° |
| 2026-04-28 11:33 | 22.15690 | 113.57629 | 28 ft | 3 kts | 19° |
| 2026-04-28 11:34 | 22.15705 | 113.57618 | 28 ft | 2 kts | 318° |
| 2026-04-28 11:34 | 22.15710 | 113.57612 | 28 ft | 1 kts | 310° |
| 2026-04-28 11:34 | 22.15714 | 113.57606 | 28 ft | 1 kts | 308° |
| 2026-04-28 11:34 | 22.15718 | 113.57600 | 28 ft | 1 kts | 306° |
| 2026-04-28 11:35 | 22.15723 | 113.57593 | 28 ft | 1 kts | 305° |
| 2026-04-28 11:35 | 22.15727 | 113.57586 | 28 ft | 1 kts | 304° |
| 2026-04-28 11:35 | 22.15731 | 113.57580 | 28 ft | 1 kts | 304° |
| 2026-04-28 11:35 | 22.15735 | 113.57574 | 28 ft | 1 kts | 303° |
| 2026-04-28 11:36 | 22.15737 | 113.57570 | 28 ft | 0 kts | 303° |